createdAt,value
2023-01-29T00:00:40.666Z,22
2023-01-29T00:01:40.698Z,21
2023-01-29T00:02:40.653Z,20
2023-01-29T00:03:40.676Z,21
2023-01-29T00:04:40.790Z,21
2023-01-29T00:05:40.731Z,21
2023-01-29T00:06:40.659Z,24
2023-01-29T00:07:40.653Z,23
2023-01-29T00:08:40.659Z,22
2023-01-29T00:09:40.702Z,25
2023-01-29T00:11:40.665Z,24
2023-01-29T00:12:40.722Z,27
2023-01-29T00:13:40.661Z,28
2023-01-29T00:14:40.659Z,25
2023-01-29T00:15:40.645Z,20
2023-01-29T00:16:40.886Z,22
2023-01-29T00:17:40.704Z,26
2023-01-29T00:18:40.684Z,22
2023-01-29T00:19:40.656Z,24
2023-01-29T00:20:40.663Z,25
2023-01-29T00:21:40.640Z,24
2023-01-29T00:22:40.652Z,24
2023-01-29T00:23:40.725Z,24
2023-01-29T00:24:40.655Z,25
2023-01-29T00:25:40.656Z,21
2023-01-29T00:26:40.646Z,19
2023-01-29T00:27:40.657Z,21
2023-01-29T00:28:40.694Z,18
2023-01-29T00:29:40.644Z,21
2023-01-29T00:30:40.640Z,22
2023-01-29T00:31:40.844Z,20
2023-01-29T00:32:40.647Z,21
2023-01-29T00:33:40.669Z,20
2023-01-29T00:34:40.642Z,25
2023-01-29T00:35:40.642Z,22
2023-01-29T00:36:40.637Z,22
2023-01-29T00:37:40.656Z,22
2023-01-29T00:38:40.693Z,21
2023-01-29T00:39:47.855Z,21
2023-01-29T00:40:40.653Z,22
2023-01-29T00:41:40.663Z,20
2023-01-29T00:42:40.708Z,21
2023-01-29T00:43:40.808Z,19
2023-01-29T00:44:40.740Z,21
2023-01-29T00:45:41.848Z,19
2023-01-29T00:46:40.970Z,20
2023-01-29T00:47:40.646Z,22
2023-01-29T00:48:40.686Z,22
2023-01-29T00:49:40.651Z,24
2023-01-29T00:50:40.644Z,20
2023-01-29T00:51:40.632Z,24
2023-01-29T00:52:40.649Z,22
2023-01-29T00:53:40.693Z,22
2023-01-29T00:54:40.636Z,23
2023-01-29T00:55:40.651Z,24
2023-01-29T00:56:40.649Z,21
2023-01-29T00:57:40.663Z,19
2023-01-29T00:58:40.656Z,25
2023-01-29T00:59:40.674Z,21
2023-01-29T01:00:40.695Z,22
2023-01-29T01:01:40.678Z,22
2023-01-29T01:02:40.692Z,21
2023-01-29T01:03:40.753Z,21
2023-01-29T01:04:40.643Z,28
2023-01-29T01:05:40.643Z,23
2023-01-29T01:06:40.691Z,27
2023-01-29T01:07:40.952Z,26
2023-01-29T01:08:40.653Z,27
2023-01-29T01:09:40.632Z,25
2023-01-29T01:10:40.637Z,24
2023-01-29T01:11:40.667Z,23
2023-01-29T01:12:40.707Z,23
2023-01-29T01:13:40.658Z,19
2023-01-29T01:14:40.636Z,25
2023-01-29T01:15:40.653Z,22
2023-01-29T01:16:40.744Z,23
2023-01-29T01:17:40.764Z,18
2023-01-29T01:18:40.729Z,22
2023-01-29T01:19:40.637Z,21
2023-01-29T01:20:40.638Z,21
2023-01-29T01:21:40.646Z,24
2023-01-29T01:22:40.650Z,17
2023-01-29T01:23:40.648Z,22
2023-01-29T01:24:40.631Z,17
2023-01-29T01:25:40.629Z,20
2023-01-29T01:26:40.646Z,19
2023-01-29T01:27:40.640Z,17
2023-01-29T01:28:40.649Z,21
2023-01-29T01:29:40.643Z,22
2023-01-29T01:30:40.692Z,20
2023-01-29T01:31:40.693Z,24
2023-01-29T01:32:40.638Z,21
2023-01-29T01:33:40.663Z,18
2023-01-29T01:34:40.634Z,20
2023-01-29T01:35:40.649Z,19
2023-01-29T01:36:40.637Z,22
2023-01-29T01:37:40.628Z,20
2023-01-29T01:38:40.660Z,22
2023-01-29T01:39:40.662Z,18
2023-01-29T01:40:40.635Z,20
2023-01-29T01:41:40.616Z,21
2023-01-29T01:42:40.693Z,20
2023-01-29T01:43:40.654Z,20
2023-01-29T01:44:40.632Z,20
2023-01-29T01:45:47.929Z,20
2023-01-29T01:46:40.631Z,17
2023-01-29T01:47:40.920Z,20
2023-01-29T01:48:40.659Z,21
2023-01-29T01:49:40.678Z,20
2023-01-29T01:50:40.626Z,18
2023-01-29T01:51:40.652Z,18
2023-01-29T01:52:40.641Z,20
2023-01-29T01:53:40.652Z,22
2023-01-29T01:54:40.627Z,20
2023-01-29T01:55:40.628Z,28
2023-01-29T01:56:40.645Z,23
2023-01-29T01:57:40.679Z,23
2023-01-29T01:58:40.638Z,20
2023-01-29T01:59:40.893Z,20
2023-01-29T02:00:40.692Z,19
2023-01-29T02:01:40.618Z,20
2023-01-29T02:02:40.625Z,22
2023-01-29T02:03:40.656Z,19
2023-01-29T02:04:40.623Z,20
2023-01-29T02:05:40.672Z,19
2023-01-29T02:06:40.630Z,18
2023-01-29T02:07:40.629Z,19
2023-01-29T02:08:40.645Z,23
2023-01-29T02:09:40.628Z,21
2023-01-29T02:10:40.620Z,22
2023-01-29T02:11:40.647Z,19
2023-01-29T02:12:40.628Z,18
2023-01-29T02:13:40.635Z,19
2023-01-29T02:14:40.631Z,23
2023-01-29T02:15:40.624Z,21
2023-01-29T02:16:40.666Z,22
2023-01-29T02:17:40.679Z,19
2023-01-29T02:18:40.663Z,21
2023-01-29T02:19:40.626Z,22
2023-01-29T02:20:40.624Z,19
2023-01-29T02:21:40.610Z,21
2023-01-29T02:22:40.626Z,23
2023-01-29T02:23:40.674Z,21
2023-01-29T02:24:40.661Z,24
2023-01-29T02:25:40.648Z,27
2023-01-29T02:26:40.618Z,25
2023-01-29T02:27:40.613Z,25
2023-01-29T02:28:40.647Z,23
2023-01-29T02:29:40.617Z,25
2023-01-29T02:30:40.678Z,23
2023-01-29T02:31:40.660Z,23
2023-01-29T02:32:40.604Z,24
2023-01-29T02:33:40.645Z,23
2023-01-29T02:34:40.616Z,22
2023-01-29T02:35:40.636Z,20
2023-01-29T02:36:40.623Z,27
2023-01-29T02:37:40.615Z,22
2023-01-29T02:38:40.653Z,23
2023-01-29T02:39:40.625Z,23
2023-01-29T02:40:40.614Z,24
2023-01-29T02:41:40.637Z,23
2023-01-29T02:42:40.604Z,23
2023-01-29T02:43:40.653Z,21
2023-01-29T02:44:40.631Z,21
2023-01-29T02:46:40.607Z,25
2023-01-29T02:47:40.633Z,21
2023-01-29T02:48:40.643Z,20
2023-01-29T02:49:40.634Z,20
2023-01-29T02:50:40.621Z,20
2023-01-29T02:51:40.622Z,22
2023-01-29T02:52:40.621Z,21
2023-01-29T02:53:40.622Z,21
2023-01-29T02:54:40.615Z,18
2023-01-29T02:55:40.624Z,21
2023-01-29T02:56:40.609Z,19
2023-01-29T02:57:40.618Z,22
2023-01-29T02:58:40.604Z,21
2023-01-29T02:59:40.617Z,21
2023-01-29T03:00:40.616Z,22
2023-01-29T03:01:40.624Z,21
2023-01-29T03:02:40.618Z,23
2023-01-29T03:03:40.628Z,18
2023-01-29T03:04:40.610Z,23
2023-01-29T03:05:40.597Z,21
2023-01-29T03:06:40.608Z,22
2023-01-29T03:07:40.610Z,24
2023-01-29T03:08:40.678Z,22
2023-01-29T03:09:40.613Z,24
2023-01-29T03:10:40.630Z,20
2023-01-29T03:11:40.624Z,21
2023-01-29T03:12:40.598Z,19
2023-01-29T03:13:40.604Z,23
2023-01-29T03:14:40.621Z,22
2023-01-29T03:15:40.602Z,22
2023-01-29T03:16:40.666Z,18
2023-01-29T03:17:40.628Z,24
2023-01-29T03:18:40.655Z,19
2023-01-29T03:19:40.616Z,22
2023-01-29T03:20:40.622Z,17
2023-01-29T03:21:40.620Z,22
2023-01-29T03:22:40.629Z,21
2023-01-29T03:23:40.595Z,20
2023-01-29T03:24:40.622Z,18
2023-01-29T03:25:40.683Z,21
2023-01-29T03:26:40.619Z,18
2023-01-29T03:27:40.615Z,23
2023-01-29T03:28:40.603Z,20
2023-01-29T03:29:40.610Z,22
2023-01-29T03:30:40.594Z,18
2023-01-29T03:31:40.812Z,22
2023-01-29T03:32:40.591Z,22
2023-01-29T03:33:40.611Z,22
2023-01-29T03:34:40.602Z,23
2023-01-29T03:35:40.596Z,23
2023-01-29T03:36:40.678Z,21
2023-01-29T03:37:40.735Z,21
2023-01-29T03:38:40.600Z,21
2023-01-29T03:39:40.669Z,20
2023-01-29T03:40:40.742Z,21
2023-01-29T03:41:40.839Z,20
2023-01-29T03:42:40.657Z,20
2023-01-29T03:43:40.615Z,19
2023-01-29T03:44:40.877Z,21
2023-01-29T03:45:40.698Z,19
2023-01-29T03:46:40.671Z,19
2023-01-29T03:47:40.630Z,24
2023-01-29T03:48:40.674Z,23
2023-01-29T03:49:40.607Z,22
2023-01-29T03:50:40.605Z,21
2023-01-29T03:51:40.605Z,20
2023-01-29T03:52:40.590Z,19
2023-01-29T03:53:40.589Z,25
2023-01-29T03:54:40.627Z,22
2023-01-29T03:55:40.597Z,25
2023-01-29T03:56:40.774Z,21
2023-01-29T03:57:40.606Z,24
2023-01-29T03:58:40.619Z,20
2023-01-29T03:59:40.622Z,25
2023-01-29T04:00:40.631Z,23
2023-01-29T04:01:40.658Z,22
2023-01-29T04:02:40.594Z,21
2023-01-29T04:03:40.600Z,21
2023-01-29T04:04:40.608Z,21
2023-01-29T04:05:40.607Z,20
2023-01-29T04:06:40.594Z,21
2023-01-29T04:07:40.604Z,21
2023-01-29T04:08:40.609Z,19
2023-01-29T04:09:40.606Z,21
2023-01-29T04:10:40.608Z,21
2023-01-29T04:11:40.579Z,18
2023-01-29T04:12:40.597Z,22
2023-01-29T04:13:40.587Z,21
2023-01-29T04:14:40.604Z,18
2023-01-29T04:15:40.664Z,18
2023-01-29T04:16:40.648Z,20
2023-01-29T04:17:40.579Z,21
2023-01-29T04:18:40.624Z,17
2023-01-29T04:19:40.619Z,18
2023-01-29T04:20:40.592Z,19
2023-01-29T04:21:40.582Z,21
2023-01-29T04:22:40.588Z,16
2023-01-29T04:23:40.584Z,20
2023-01-29T04:24:40.609Z,21
2023-01-29T04:25:40.585Z,21
2023-01-29T04:26:40.582Z,19
2023-01-29T04:27:40.576Z,24
2023-01-29T04:28:40.586Z,21
2023-01-29T04:29:40.586Z,20
2023-01-29T04:30:40.660Z,20
2023-01-29T04:31:40.728Z,20
2023-01-29T04:32:40.590Z,21
2023-01-29T04:33:40.628Z,18
2023-01-29T04:34:40.613Z,19
2023-01-29T04:35:40.599Z,22
2023-01-29T04:36:40.579Z,21
2023-01-29T04:37:40.585Z,23
2023-01-29T04:38:40.595Z,21
2023-01-29T04:39:40.596Z,20
2023-01-29T04:40:40.574Z,16
2023-01-29T04:41:40.575Z,22
2023-01-29T04:42:40.579Z,18
2023-01-29T04:43:40.578Z,19
2023-01-29T04:44:40.615Z,24
2023-01-29T04:45:40.608Z,18
2023-01-29T04:46:40.577Z,22
2023-01-29T04:47:40.671Z,23
2023-01-29T04:48:40.595Z,21
2023-01-29T04:49:40.603Z,23
2023-01-29T04:50:40.599Z,20
2023-01-29T04:51:40.588Z,16
2023-01-29T04:52:40.634Z,25
2023-01-29T04:53:40.579Z,22
2023-01-29T04:54:40.591Z,24
2023-01-29T04:55:40.604Z,26
2023-01-29T04:56:40.588Z,20
2023-01-29T04:57:40.592Z,25
2023-01-29T04:58:40.576Z,20
2023-01-29T04:59:40.588Z,23
2023-01-29T05:00:40.614Z,22
2023-01-29T05:01:40.695Z,23
2023-01-29T05:03:40.601Z,21
2023-01-29T05:04:40.611Z,18
2023-01-29T05:05:40.570Z,22
2023-01-29T05:06:40.592Z,22
2023-01-29T05:07:40.584Z,22
2023-01-29T05:08:40.601Z,22
2023-01-29T05:09:40.584Z,24
2023-01-29T05:10:40.577Z,18
2023-01-29T05:11:40.582Z,22
2023-01-29T05:12:40.589Z,21
2023-01-29T05:13:40.589Z,20
2023-01-29T05:14:40.587Z,25
2023-01-29T05:15:40.811Z,24
2023-01-29T05:16:40.564Z,24
2023-01-29T05:17:40.575Z,20
2023-01-29T05:18:40.583Z,25
2023-01-29T05:19:40.598Z,25
2023-01-29T05:20:40.586Z,22
2023-01-29T05:21:41.247Z,23
2023-01-29T05:22:40.570Z,25
2023-01-29T05:23:40.586Z,20
2023-01-29T05:24:40.594Z,23
2023-01-29T05:25:40.569Z,21
2023-01-29T05:26:40.579Z,21
2023-01-29T05:27:40.595Z,19
2023-01-29T05:28:40.579Z,22
2023-01-29T05:29:40.578Z,23
2023-01-29T05:30:40.600Z,24
2023-01-29T05:31:40.602Z,22
2023-01-29T05:32:40.587Z,22
2023-01-29T05:33:40.593Z,24
2023-01-29T05:34:40.907Z,23
2023-01-29T05:35:40.575Z,26
2023-01-29T05:36:40.567Z,23
2023-01-29T05:37:40.572Z,28
2023-01-29T05:38:40.580Z,26
2023-01-29T05:39:40.592Z,23
2023-01-29T05:40:40.575Z,27
2023-01-29T05:41:40.567Z,20
2023-01-29T05:42:40.561Z,24
2023-01-29T05:43:40.585Z,24
2023-01-29T05:44:40.570Z,26
2023-01-29T05:45:40.579Z,21
2023-01-29T05:46:40.613Z,27
2023-01-29T05:47:40.562Z,19
2023-01-29T05:48:40.574Z,20
2023-01-29T05:49:40.587Z,22
2023-01-29T05:50:40.550Z,22
2023-01-29T05:51:40.564Z,27
2023-01-29T05:52:40.556Z,23
2023-01-29T05:53:40.577Z,17
2023-01-29T05:54:40.753Z,24
2023-01-29T05:55:40.561Z,21
2023-01-29T05:56:40.563Z,22
2023-01-29T05:57:40.563Z,22
2023-01-29T05:58:40.550Z,22
2023-01-29T05:59:40.581Z,20
2023-01-29T06:00:40.560Z,21
2023-01-29T06:01:40.568Z,19
2023-01-29T06:02:40.590Z,19
2023-01-29T06:03:40.587Z,17
2023-01-29T06:04:40.579Z,20
2023-01-29T06:05:40.584Z,20
2023-01-29T06:06:40.551Z,22
2023-01-29T06:07:42.910Z,22
2023-01-29T06:08:40.573Z,21
2023-01-29T06:09:40.594Z,23
2023-01-29T06:10:40.560Z,19
2023-01-29T06:11:40.575Z,20
2023-01-29T06:12:40.554Z,20
2023-01-29T06:13:40.574Z,22
2023-01-29T06:14:40.573Z,21
2023-01-29T06:15:40.563Z,22
2023-01-29T06:16:40.564Z,24
2023-01-29T06:17:40.700Z,25
2023-01-29T06:18:40.587Z,23
2023-01-29T06:19:40.579Z,21
2023-01-29T06:20:40.557Z,25
2023-01-29T06:21:40.551Z,25
2023-01-29T06:22:40.554Z,24
2023-01-29T06:23:40.627Z,27
2023-01-29T06:24:40.573Z,30
2023-01-29T06:25:40.561Z,27
2023-01-29T06:26:40.553Z,27
2023-01-29T06:27:40.556Z,28
2023-01-29T06:28:40.578Z,28
2023-01-29T06:29:40.572Z,26
2023-01-29T06:30:40.575Z,25
2023-01-29T06:31:40.700Z,22
2023-01-29T06:32:40.601Z,25
2023-01-29T06:33:40.567Z,23
2023-01-29T06:34:40.575Z,21
2023-01-29T06:35:40.550Z,27
2023-01-29T06:37:40.545Z,29
2023-01-29T06:38:40.565Z,25
2023-01-29T06:39:40.554Z,25
2023-01-29T06:40:40.555Z,27
2023-01-29T06:41:40.559Z,24
2023-01-29T06:42:40.551Z,27
2023-01-29T06:43:40.562Z,28
2023-01-29T06:44:40.549Z,27
2023-01-29T06:45:40.602Z,23
2023-01-29T06:46:40.535Z,28
2023-01-29T06:47:40.571Z,26
2023-01-29T06:48:40.596Z,22
2023-01-29T06:49:40.556Z,24
2023-01-29T06:50:40.563Z,24
2023-01-29T06:51:40.554Z,23
2023-01-29T06:52:40.551Z,25
2023-01-29T06:53:40.568Z,24
2023-01-29T06:54:40.562Z,24
2023-01-29T06:55:40.555Z,22
2023-01-29T06:56:40.549Z,25
2023-01-29T06:57:40.560Z,22
2023-01-29T06:58:40.560Z,21
2023-01-29T06:59:40.551Z,22
2023-01-29T07:00:40.584Z,25
2023-01-29T07:01:40.599Z,26
2023-01-29T07:02:40.549Z,22
2023-01-29T07:03:40.555Z,25
2023-01-29T07:04:40.549Z,23
2023-01-29T07:05:40.594Z,27
2023-01-29T07:06:40.548Z,23
2023-01-29T07:07:40.542Z,22
2023-01-29T07:08:40.565Z,24
2023-01-29T07:09:40.563Z,23
2023-01-29T07:10:40.565Z,25
2023-01-29T07:11:40.542Z,22
2023-01-29T07:12:40.560Z,23
2023-01-29T07:13:40.541Z,24
2023-01-29T07:14:40.534Z,24
2023-01-29T07:15:40.606Z,24
2023-01-29T07:16:40.621Z,23
2023-01-29T07:17:40.554Z,26
2023-01-29T07:18:40.570Z,25
2023-01-29T07:19:40.690Z,25
2023-01-29T07:20:40.555Z,28
2023-01-29T07:21:40.556Z,31
2023-01-29T07:22:40.537Z,30
2023-01-29T07:23:40.573Z,26
2023-01-29T07:24:40.535Z,23
2023-01-29T07:25:40.560Z,30
2023-01-29T07:26:40.550Z,37
2023-01-29T07:27:40.530Z,35
2023-01-29T07:28:40.543Z,30
2023-01-29T07:29:40.570Z,34
2023-01-29T07:30:45.568Z,31
2023-01-29T07:31:40.746Z,28
2023-01-29T07:32:40.534Z,30
2023-01-29T07:33:40.538Z,30
2023-01-29T07:34:40.532Z,27
2023-01-29T07:35:40.554Z,32
2023-01-29T07:36:40.677Z,27
2023-01-29T07:37:40.538Z,33
2023-01-29T07:38:40.529Z,33
2023-01-29T07:39:40.534Z,27
2023-01-29T07:40:40.544Z,29
2023-01-29T07:41:40.539Z,31
2023-01-29T07:42:40.523Z,27
2023-01-29T07:43:40.566Z,27
2023-01-29T07:44:40.525Z,29
2023-01-29T07:45:40.589Z,29
2023-01-29T07:46:40.562Z,30
2023-01-29T07:47:40.557Z,34
2023-01-29T07:48:40.545Z,29
2023-01-29T07:49:40.532Z,34
2023-01-29T07:50:40.555Z,27
2023-01-29T07:51:40.544Z,25
2023-01-29T07:52:40.534Z,28
2023-01-29T07:53:40.540Z,35
2023-01-29T07:54:40.531Z,32
2023-01-29T07:55:40.564Z,32
2023-01-29T07:56:40.535Z,38
2023-01-29T07:57:40.527Z,28
2023-01-29T07:58:40.530Z,33
2023-01-29T07:59:40.529Z,35
2023-01-29T08:00:40.539Z,33
2023-01-29T08:01:40.537Z,37
2023-01-29T08:02:40.524Z,32
2023-01-29T08:03:40.541Z,32
2023-01-29T08:04:40.537Z,36
2023-01-29T08:05:40.537Z,34
2023-01-29T08:06:40.521Z,32
2023-01-29T08:07:40.529Z,28
2023-01-29T08:08:40.781Z,29
2023-01-29T08:09:40.534Z,32
2023-01-29T08:10:40.551Z,31
2023-01-29T08:11:40.518Z,31
2023-01-29T08:12:40.524Z,31
2023-01-29T08:13:40.536Z,36
2023-01-29T08:14:40.601Z,28
2023-01-29T08:15:40.544Z,31
2023-01-29T08:16:40.629Z,33
2023-01-29T08:17:56.021Z,34
2023-01-29T08:18:40.523Z,34
2023-01-29T08:19:40.562Z,34
2023-01-29T08:20:40.535Z,31
2023-01-29T08:21:40.525Z,36
2023-01-29T08:22:40.527Z,33
2023-01-29T08:23:40.739Z,34
2023-01-29T08:24:53.569Z,38
2023-01-29T08:25:40.636Z,33
2023-01-29T08:26:40.529Z,35
2023-01-29T08:27:40.521Z,33
2023-01-29T08:28:40.524Z,29
2023-01-29T08:29:40.539Z,35
2023-01-29T08:30:40.632Z,29
2023-01-29T08:31:40.568Z,28
2023-01-29T08:32:40.521Z,32
2023-01-29T08:33:40.514Z,30
2023-01-29T08:34:40.534Z,33
2023-01-29T08:35:40.549Z,35
2023-01-29T08:36:40.526Z,36
2023-01-29T08:37:40.523Z,33
2023-01-29T08:38:40.529Z,37
2023-01-29T08:40:40.534Z,34
2023-01-29T08:41:40.514Z,37
2023-01-29T08:42:40.526Z,34
2023-01-29T08:43:40.550Z,39
2023-01-29T08:44:40.517Z,38
2023-01-29T08:45:40.588Z,36
2023-01-29T08:46:40.516Z,34
2023-01-29T08:47:40.551Z,35
2023-01-29T08:48:40.544Z,40
2023-01-29T08:49:40.533Z,35
2023-01-29T08:50:40.524Z,37
2023-01-29T08:51:40.519Z,35
2023-01-29T08:52:40.520Z,36
2023-01-29T08:53:40.513Z,37
2023-01-29T08:54:40.518Z,37
2023-01-29T08:55:40.525Z,35
2023-01-29T08:56:40.514Z,35
2023-01-29T08:57:40.516Z,39
2023-01-29T08:58:40.508Z,35
2023-01-29T08:59:40.518Z,33
2023-01-29T09:00:40.539Z,35
2023-01-29T09:01:40.519Z,34
2023-01-29T09:02:40.572Z,33
2023-01-29T09:03:40.516Z,38
2023-01-29T09:04:40.658Z,33
2023-01-29T09:05:40.527Z,37
2023-01-29T09:06:40.845Z,35
2023-01-29T09:07:40.520Z,37
2023-01-29T09:08:40.600Z,44
2023-01-29T09:09:40.534Z,38
2023-01-29T09:10:40.552Z,34
2023-01-29T09:11:40.516Z,36
2023-01-29T09:12:40.588Z,35
2023-01-29T09:13:40.523Z,39
2023-01-29T09:14:40.535Z,34
2023-01-29T09:15:40.565Z,40
2023-01-29T09:16:40.830Z,34
2023-01-29T09:17:40.516Z,38
2023-01-29T09:19:40.532Z,36
2023-01-29T09:20:40.534Z,39
2023-01-29T09:21:40.518Z,32
2023-01-29T09:22:40.547Z,38
2023-01-29T09:23:40.523Z,35
2023-01-29T09:24:40.520Z,33
2023-01-29T09:25:40.612Z,38
2023-01-29T09:26:40.564Z,37
2023-01-29T09:27:40.621Z,37
2023-01-29T09:28:40.504Z,38
2023-01-29T09:29:40.505Z,36
2023-01-29T09:30:40.807Z,38
2023-01-29T09:31:40.603Z,38
2023-01-29T09:32:56.025Z,46
2023-01-29T09:33:40.512Z,35
2023-01-29T09:34:40.531Z,34
2023-01-29T09:35:40.519Z,41
2023-01-29T09:36:40.521Z,40
2023-01-29T09:37:40.523Z,38
2023-01-29T09:38:40.523Z,38
2023-01-29T09:39:40.518Z,39
2023-01-29T09:40:40.534Z,40
2023-01-29T09:41:40.541Z,41
2023-01-29T09:42:40.517Z,36
2023-01-29T09:43:40.541Z,39
2023-01-29T09:44:40.520Z,38
2023-01-29T09:45:40.530Z,39
2023-01-29T09:46:40.506Z,41
2023-01-29T09:47:40.500Z,39
2023-01-29T09:48:40.520Z,39
2023-01-29T09:49:40.528Z,41
2023-01-29T09:50:40.522Z,44
2023-01-29T09:51:40.505Z,43
2023-01-29T09:52:40.510Z,34
2023-01-29T09:53:40.503Z,35
2023-01-29T09:54:40.509Z,39
2023-01-29T09:55:40.533Z,38
2023-01-29T09:56:40.515Z,41
2023-01-29T09:57:40.501Z,43
2023-01-29T09:58:40.507Z,41
2023-01-29T09:59:40.511Z,42
2023-01-29T10:00:40.543Z,42
2023-01-29T10:01:40.641Z,40
2023-01-29T10:02:40.504Z,40
2023-01-29T10:03:40.509Z,36
2023-01-29T10:04:40.577Z,38
2023-01-29T10:05:40.520Z,40
2023-01-29T10:06:46.978Z,41
2023-01-29T10:07:40.511Z,41
2023-01-29T10:08:40.504Z,41
2023-01-29T10:09:40.501Z,36
2023-01-29T10:10:40.528Z,44
2023-01-29T10:11:40.503Z,42
2023-01-29T10:12:40.506Z,39
2023-01-29T10:13:40.532Z,37
2023-01-29T10:14:40.501Z,39
2023-01-29T10:15:40.515Z,40
2023-01-29T10:16:40.515Z,42
2023-01-29T10:17:40.513Z,39
2023-01-29T10:18:40.507Z,43
2023-01-29T10:19:40.536Z,41
2023-01-29T10:20:40.543Z,39
2023-01-29T10:21:40.502Z,40
2023-01-29T10:22:40.507Z,44
2023-01-29T10:23:40.501Z,39
2023-01-29T10:24:40.498Z,44
2023-01-29T10:25:40.520Z,36
2023-01-29T10:26:40.628Z,39
2023-01-29T10:27:40.498Z,42
2023-01-29T10:28:40.507Z,41
2023-01-29T10:29:40.507Z,43
2023-01-29T10:30:40.513Z,39
2023-01-29T10:31:40.648Z,43
2023-01-29T10:32:40.520Z,40
2023-01-29T10:33:49.162Z,42
2023-01-29T10:34:40.513Z,39
2023-01-29T10:35:40.507Z,39
2023-01-29T10:36:40.502Z,42
2023-01-29T10:37:40.500Z,40
2023-01-29T10:38:40.494Z,39
2023-01-29T10:39:40.495Z,43
2023-01-29T10:40:40.523Z,38
2023-01-29T10:41:40.515Z,42
2023-01-29T10:42:40.574Z,43
2023-01-29T10:43:40.531Z,41
2023-01-29T10:44:40.517Z,42
2023-01-29T10:45:40.709Z,38
2023-01-29T10:46:40.490Z,38
2023-01-29T10:47:40.806Z,42
2023-01-29T10:48:40.508Z,40
2023-01-29T10:49:40.524Z,41
2023-01-29T10:50:40.515Z,35
2023-01-29T10:51:40.491Z,42
2023-01-29T10:52:40.507Z,42
2023-01-29T10:53:40.492Z,37
2023-01-29T10:54:40.501Z,40
2023-01-29T10:55:40.504Z,43
2023-01-29T10:56:40.495Z,37
2023-01-29T10:57:40.497Z,39
2023-01-29T10:58:40.497Z,41
2023-01-29T10:59:40.584Z,36
2023-01-29T11:00:40.517Z,36
2023-01-29T11:01:40.582Z,38
2023-01-29T11:02:40.538Z,35
2023-01-29T11:03:40.585Z,36
2023-01-29T11:04:40.519Z,38
2023-01-29T11:05:40.514Z,36
2023-01-29T11:07:40.492Z,38
2023-01-29T11:08:40.497Z,35
2023-01-29T11:09:40.496Z,36
2023-01-29T11:10:40.513Z,32
2023-01-29T11:11:40.561Z,35
2023-01-29T11:12:40.494Z,37
2023-01-29T11:13:40.502Z,36
2023-01-29T11:14:40.491Z,40
2023-01-29T11:16:40.504Z,40
2023-01-29T11:17:41.772Z,36
2023-01-29T11:18:40.496Z,39
2023-01-29T11:19:40.512Z,33
2023-01-29T11:20:40.497Z,36
2023-01-29T11:21:40.541Z,36
2023-01-29T11:22:40.501Z,34
2023-01-29T11:23:40.499Z,30
2023-01-29T11:24:40.497Z,34
2023-01-29T11:25:40.493Z,37
2023-01-29T11:26:40.642Z,33
2023-01-29T11:27:40.494Z,35
2023-01-29T11:28:40.512Z,35
2023-01-29T11:29:40.526Z,33
2023-01-29T11:30:40.563Z,31
2023-01-29T11:31:40.523Z,36
2023-01-29T11:32:40.491Z,32
2023-01-29T11:33:40.486Z,33
2023-01-29T11:34:40.496Z,33
2023-01-29T11:35:40.497Z,32
2023-01-29T11:36:40.498Z,31
2023-01-29T11:37:40.491Z,34
2023-01-29T11:38:40.494Z,36
2023-01-29T11:39:40.488Z,31
2023-01-29T11:40:40.505Z,32
2023-01-29T11:41:40.507Z,34
2023-01-29T11:42:40.500Z,33
2023-01-29T11:43:40.518Z,35
2023-01-29T11:44:40.499Z,34
2023-01-29T11:45:40.498Z,28
2023-01-29T11:46:40.544Z,32
2023-01-29T11:47:40.587Z,34
2023-01-29T11:48:40.495Z,30
2023-01-29T11:49:40.518Z,31
2023-01-29T11:50:40.490Z,36
2023-01-29T11:51:40.504Z,31
2023-01-29T11:52:40.493Z,33
2023-01-29T11:53:40.489Z,32
2023-01-29T11:54:40.493Z,30
2023-01-29T11:55:50.315Z,35
2023-01-29T11:56:40.563Z,37
2023-01-29T11:57:40.483Z,32
2023-01-29T11:58:40.492Z,33
2023-01-29T11:59:40.488Z,33
2023-01-29T12:00:40.485Z,33
2023-01-29T12:01:40.485Z,31
2023-01-29T12:02:40.485Z,35
2023-01-29T12:03:40.554Z,34
2023-01-29T12:04:40.538Z,33
2023-01-29T12:05:40.565Z,34
2023-01-29T12:06:40.498Z,37
2023-01-29T12:07:40.495Z,34
2023-01-29T12:08:40.500Z,35
2023-01-29T12:09:40.487Z,35
2023-01-29T12:10:40.489Z,32
2023-01-29T12:11:40.492Z,31
2023-01-29T12:12:40.478Z,32
2023-01-29T12:13:40.479Z,33
2023-01-29T12:14:40.488Z,34
2023-01-29T12:15:40.502Z,31
2023-01-29T12:16:40.516Z,30
2023-01-29T12:17:40.490Z,36
2023-01-29T12:18:40.489Z,35
2023-01-29T12:19:40.511Z,36
2023-01-29T12:20:40.486Z,30
2023-01-29T12:21:40.495Z,33
2023-01-29T12:22:40.485Z,32
2023-01-29T12:23:40.481Z,31
2023-01-29T12:24:40.488Z,36
2023-01-29T12:25:40.493Z,33
2023-01-29T12:26:40.573Z,34
2023-01-29T12:27:40.745Z,32
2023-01-29T12:28:40.481Z,34
2023-01-29T12:29:40.485Z,34
2023-01-29T12:30:40.503Z,36
2023-01-29T12:31:40.552Z,37
2023-01-29T12:32:40.504Z,32
2023-01-29T12:33:40.493Z,37
2023-01-29T12:34:40.498Z,34
2023-01-29T12:35:40.473Z,35
2023-01-29T12:36:40.573Z,32
2023-01-29T12:37:40.490Z,35
2023-01-29T12:38:40.493Z,35
2023-01-29T12:39:40.491Z,34
2023-01-29T12:40:40.495Z,34
2023-01-29T12:41:40.512Z,34
2023-01-29T12:42:40.491Z,33
2023-01-29T12:43:40.486Z,34
2023-01-29T12:44:40.475Z,33
2023-01-29T12:45:40.470Z,36
2023-01-29T12:46:40.519Z,37
2023-01-29T12:47:40.487Z,36
2023-01-29T12:48:40.494Z,36
2023-01-29T12:49:40.509Z,33
2023-01-29T12:50:40.506Z,35
2023-01-29T12:51:40.511Z,33
2023-01-29T12:52:40.483Z,33
2023-01-29T12:53:40.531Z,34
2023-01-29T12:54:40.495Z,36
2023-01-29T12:55:40.476Z,35
2023-01-29T12:56:40.496Z,33
2023-01-29T12:57:40.535Z,35
2023-01-29T12:58:40.485Z,38
2023-01-29T12:59:40.482Z,33
2023-01-29T13:00:40.624Z,34
2023-01-29T13:01:40.509Z,34
2023-01-29T13:02:40.480Z,37
2023-01-29T13:03:40.500Z,31
2023-01-29T13:04:40.509Z,33
2023-01-29T13:05:40.491Z,35
2023-01-29T13:06:40.472Z,34
2023-01-29T13:07:40.569Z,34
2023-01-29T13:08:40.479Z,32
2023-01-29T13:09:40.477Z,34
2023-01-29T13:10:40.483Z,31
2023-01-29T13:11:40.496Z,30
2023-01-29T13:12:40.490Z,34
2023-01-29T13:13:40.473Z,33
2023-01-29T13:14:40.478Z,35
2023-01-29T13:15:40.473Z,32
2023-01-29T13:16:40.516Z,34
2023-01-29T13:17:40.497Z,29
2023-01-29T13:18:40.570Z,33
2023-01-29T13:19:40.463Z,33
2023-01-29T13:20:40.475Z,33
2023-01-29T13:21:40.478Z,32
2023-01-29T13:22:40.703Z,33
2023-01-29T13:23:40.477Z,32
2023-01-29T13:24:40.476Z,33
2023-01-29T13:25:40.492Z,32
2023-01-29T13:26:40.536Z,31
2023-01-29T13:27:40.635Z,31
2023-01-29T13:28:40.485Z,32
2023-01-29T13:29:40.480Z,32
2023-01-29T13:30:40.585Z,31
2023-01-29T13:31:40.537Z,33
2023-01-29T13:32:40.503Z,32
2023-01-29T13:33:40.470Z,30
2023-01-29T13:34:40.473Z,30
2023-01-29T13:35:40.481Z,28
2023-01-29T13:36:40.509Z,30
2023-01-29T13:37:40.525Z,33
2023-01-29T13:38:40.480Z,29
2023-01-29T13:39:40.508Z,28
2023-01-29T13:40:40.490Z,28
2023-01-29T13:41:40.488Z,27
2023-01-29T13:42:40.508Z,28
2023-01-29T13:43:40.480Z,27
2023-01-29T13:44:40.479Z,28
2023-01-29T13:45:40.595Z,29
2023-01-29T13:46:40.510Z,28
2023-01-29T13:47:40.489Z,29
2023-01-29T13:48:40.470Z,27
2023-01-29T13:49:40.463Z,28
2023-01-29T13:50:40.495Z,25
2023-01-29T13:51:40.479Z,28
2023-01-29T13:52:40.496Z,26
2023-01-29T13:53:40.465Z,26
2023-01-29T13:54:40.536Z,26
2023-01-29T13:55:40.492Z,26
2023-01-29T13:56:40.479Z,27
2023-01-29T13:57:40.491Z,26
2023-01-29T13:58:40.475Z,27
2023-01-29T13:59:40.474Z,25
2023-01-29T14:00:40.515Z,26
2023-01-29T14:01:40.471Z,27
2023-01-29T14:02:40.525Z,26
2023-01-29T14:03:56.692Z,29
2023-01-29T14:04:40.469Z,24
2023-01-29T14:05:40.497Z,28
2023-01-29T14:06:40.472Z,24
2023-01-29T14:07:40.505Z,23
2023-01-29T14:08:40.479Z,26
2023-01-29T14:09:40.471Z,25
2023-01-29T14:10:40.476Z,26
2023-01-29T14:11:40.472Z,23
2023-01-29T14:12:40.507Z,26
2023-01-29T14:13:40.477Z,26
2023-01-29T14:14:40.467Z,25
2023-01-29T14:15:40.497Z,27
2023-01-29T14:16:40.576Z,25
2023-01-29T14:17:40.520Z,21
2023-01-29T14:18:40.477Z,26
2023-01-29T14:19:40.475Z,25
2023-01-29T14:20:45.927Z,25
2023-01-29T14:21:40.466Z,24
2023-01-29T14:22:40.557Z,28
2023-01-29T14:23:40.521Z,26